sensor_id;sensor_type;location;lat;lon;timestamp;temperature;humidity
4727;DHT22;2377;51.734;8.950;2022-09-12T00:01:47;12.00;99.90
4727;DHT22;2377;51.734;8.950;2022-09-12T00:04:14;12.00;99.90
4727;DHT22;2377;51.734;8.950;2022-09-12T00:06:42;12.00;99.90
4727;DHT22;2377;51.734;8.950;2022-09-12T00:09:11;12.00;99.90
4727;DHT22;2377;51.734;8.950;2022-09-12T00:11:42;12.00;99.90
4727;DHT22;2377;51.734;8.950;2022-09-12T00:14:12;11.90;99.90
4727;DHT22;2377;51.734;8.950;2022-09-12T00:16:43;11.90;99.90
4727;DHT22;2377;51.734;8.950;2022-09-12T00:19:11;11.90;99.90
4727;DHT22;2377;51.734;8.950;2022-09-12T00:21:39;11.90;99.90
4727;DHT22;2377;51.734;8.950;2022-09-12T00:24:07;11.80;99.90
4727;DHT22;2377;51.734;8.950;2022-09-12T00:26:35;11.80;99.90
4727;DHT22;2377;51.734;8.950;2022-09-12T00:29:03;11.90;99.90
4727;DHT22;2377;51.734;8.950;2022-09-12T00:31:30;11.80;99.90
4727;DHT22;2377;51.734;8.950;2022-09-12T00:33:59;11.80;99.90
4727;DHT22;2377;51.734;8.950;2022-09-12T00:36:27;11.90;99.90
4727;DHT22;2377;51.734;8.950;2022-09-12T00:38:55;11.90;99.90
4727;DHT22;2377;51.734;8.950;2022-09-12T00:41:26;11.80;99.90
4727;DHT22;2377;51.734;8.950;2022-09-12T00:43:55;11.80;99.90
4727;DHT22;2377;51.734;8.950;2022-09-12T00:46:33;11.80;99.90
4727;DHT22;2377;51.734;8.950;2022-09-12T00:49:07;11.80;99.90
4727;DHT22;2377;51.734;8.950;2022-09-12T00:51:41;11.80;99.90
4727;DHT22;2377;51.734;8.950;2022-09-12T00:54:16;11.80;99.90
4727;DHT22;2377;51.734;8.950;2022-09-12T00:56:50;11.80;99.90
4727;DHT22;2377;51.734;8.950;2022-09-12T00:59:24;11.70;99.90
4727;DHT22;2377;51.734;8.950;2022-09-12T01:01:57;11.70;99.90
4727;DHT22;2377;51.734;8.950;2022-09-12T01:04:25;11.70;99.90
4727;DHT22;2377;51.734;8.950;2022-09-12T01:06:55;11.60;99.90
4727;DHT22;2377;51.734;8.950;2022-09-12T01:09:24;11.60;99.90
4727;DHT22;2377;51.734;8.950;2022-09-12T01:11:52;11.60;99.90
4727;DHT22;2377;51.734;8.950;2022-09-12T01:14:20;11.60;99.90
4727;DHT22;2377;51.734;8.950;2022-09-12T01:16:49;11.60;99.90
4727;DHT22;2377;51.734;8.950;2022-09-12T01:19:49;11.60;99.90
4727;DHT22;2377;51.734;8.950;2022-09-12T01:23:04;11.60;99.90
4727;DHT22;2377;51.734;8.950;2022-09-12T01:25:52;11.60;99.90
4727;DHT22;2377;51.734;8.950;2022-09-12T01:28:52;11.50;99.90
4727;DHT22;2377;51.734;8.950;2022-09-12T01:31:45;11.50;99.90
4727;DHT22;2377;51.734;8.950;2022-09-12T01:34:23;11.50;99.90
4727;DHT22;2377;51.734;8.950;2022-09-12T01:37:04;11.50;99.90
4727;DHT22;2377;51.734;8.950;2022-09-12T01:39:41;11.40;99.90
4727;DHT22;2377;51.734;8.950;2022-09-12T01:42:21;11.50;99.90
4727;DHT22;2377;51.734;8.950;2022-09-12T01:45:03;11.40;99.90
4727;DHT22;2377;51.734;8.950;2022-09-12T01:47:42;11.40;99.90
4727;DHT22;2377;51.734;8.950;2022-09-12T01:50:16;11.30;99.90
4727;DHT22;2377;51.734;8.950;2022-09-12T01:52:49;11.30;99.90
4727;DHT22;2377;51.734;8.950;2022-09-12T01:55:23;11.30;99.90
4727;DHT22;2377;51.734;8.950;2022-09-12T01:57:57;11.30;99.90
4727;DHT22;2377;51.734;8.950;2022-09-12T02:00:32;11.30;99.90
4727;DHT22;2377;51.734;8.950;2022-09-12T02:03:10;11.30;99.90
4727;DHT22;2377;51.734;8.950;2022-09-12T02:05:43;11.30;99.90
4727;DHT22;2377;51.734;8.950;2022-09-12T02:08:18;11.20;99.90
4727;DHT22;2377;51.734;8.950;2022-09-12T02:10:54;11.20;99.90
4727;DHT22;2377;51.734;8.950;2022-09-12T02:13:26;11.20;99.90
4727;DHT22;2377;51.734;8.950;2022-09-12T02:16:04;11.20;99.90
4727;DHT22;2377;51.734;8.950;2022-09-12T02:18:37;11.20;99.90
4727;DHT22;2377;51.734;8.950;2022-09-12T02:21:10;11.20;99.90
4727;DHT22;2377;51.734;8.950;2022-09-12T02:23:40;11.30;99.90
4727;DHT22;2377;51.734;8.950;2022-09-12T02:26:16;11.20;99.90
4727;DHT22;2377;51.734;8.950;2022-09-12T02:28:46;11.20;99.90
4727;DHT22;2377;51.734;8.950;2022-09-12T02:31:19;11.20;99.90
4727;DHT22;2377;51.734;8.950;2022-09-12T02:34:00;11.10;99.90
4727;DHT22;2377;51.734;8.950;2022-09-12T02:36:41;11.20;99.90
4727;DHT22;2377;51.734;8.950;2022-09-12T02:39:15;11.20;99.90
4727;DHT22;2377;51.734;8.950;2022-09-12T02:41:45;11.10;99.90
4727;DHT22;2377;51.734;8.950;2022-09-12T02:44:12;11.10;99.90
4727;DHT22;2377;51.734;8.950;2022-09-12T02:46:43;11.00;99.90
4727;DHT22;2377;51.734;8.950;2022-09-12T02:49:14;11.10;99.90
4727;DHT22;2377;51.734;8.950;2022-09-12T02:51:42;11.10;99.90
4727;DHT22;2377;51.734;8.950;2022-09-12T02:54:11;11.10;99.90
4727;DHT22;2377;51.734;8.950;2022-09-12T02:56:43;11.10;99.90
4727;DHT22;2377;51.734;8.950;2022-09-12T02:59:14;11.10;99.90
4727;DHT22;2377;51.734;8.950;2022-09-12T03:05:10;11.00;99.90
4727;DHT22;2377;51.734;8.950;2022-09-12T03:11:14;11.00;99.90
4727;DHT22;2377;51.734;8.950;2022-09-12T03:13:56;11.00;99.90
4727;DHT22;2377;51.734;8.950;2022-09-12T03:16:37;10.90;99.90
4727;DHT22;2377;51.734;8.950;2022-09-12T03:19:18;10.90;99.90
4727;DHT22;2377;51.734;8.950;2022-09-12T03:21:57;10.90;99.90
4727;DHT22;2377;51.734;8.950;2022-09-12T03:24:36;10.90;99.90
4727;DHT22;2377;51.734;8.950;2022-09-12T03:27:15;10.90;99.90
4727;DHT22;2377;51.734;8.950;2022-09-12T03:29:47;10.90;99.90
4727;DHT22;2377;51.734;8.950;2022-09-12T03:32:15;10.80;99.90
4727;DHT22;2377;51.734;8.950;2022-09-12T03:34:43;10.80;99.90
4727;DHT22;2377;51.734;8.950;2022-09-12T03:37:11;10.80;99.90
4727;DHT22;2377;51.734;8.950;2022-09-12T03:39:38;10.80;99.90
4727;DHT22;2377;51.734;8.950;2022-09-12T03:42:05;10.80;99.90
4727;DHT22;2377;51.734;8.950;2022-09-12T03:44:32;10.80;99.90
4727;DHT22;2377;51.734;8.950;2022-09-12T03:47:00;10.80;99.90
4727;DHT22;2377;51.734;8.950;2022-09-12T03:49:27;10.80;99.90
4727;DHT22;2377;51.734;8.950;2022-09-12T03:51:54;10.80;99.90
4727;DHT22;2377;51.734;8.950;2022-09-12T03:54:22;10.80;99.90
4727;DHT22;2377;51.734;8.950;2022-09-12T03:56:50;10.80;99.90
4727;DHT22;2377;51.734;8.950;2022-09-12T03:59:17;10.80;99.90
4727;DHT22;2377;51.734;8.950;2022-09-12T04:01:44;10.80;99.90
4727;DHT22;2377;51.734;8.950;2022-09-12T04:04:11;10.90;99.90
4727;DHT22;2377;51.734;8.950;2022-09-12T04:06:38;10.90;99.90
4727;DHT22;2377;51.734;8.950;2022-09-12T04:09:06;10.90;99.90
4727;DHT22;2377;51.734;8.950;2022-09-12T04:11:35;10.80;99.90
4727;DHT22;2377;51.734;8.950;2022-09-12T04:14:02;10.80;99.90
4727;DHT22;2377;51.734;8.950;2022-09-12T04:16:29;10.80;99.90
4727;DHT22;2377;51.734;8.950;2022-09-12T04:18:56;10.80;99.90
4727;DHT22;2377;51.734;8.950;2022-09-12T04:21:24;10.80;99.90
4727;DHT22;2377;51.734;8.950;2022-09-12T04:23:51;10.80;99.90
4727;DHT22;2377;51.734;8.950;2022-09-12T04:26:19;10.80;99.90
4727;DHT22;2377;51.734;8.950;2022-09-12T04:28:52;10.80;99.90
4727;DHT22;2377;51.734;8.950;2022-09-12T04:31:23;10.80;99.90
4727;DHT22;2377;51.734;8.950;2022-09-12T04:33:52;10.70;99.90
4727;DHT22;2377;51.734;8.950;2022-09-12T04:36:20;10.70;99.90
4727;DHT22;2377;51.734;8.950;2022-09-12T04:38:48;10.70;99.90
4727;DHT22;2377;51.734;8.950;2022-09-12T04:41:18;10.70;99.90
4727;DHT22;2377;51.734;8.950;2022-09-12T04:43:51;10.70;99.90
4727;DHT22;2377;51.734;8.950;2022-09-12T04:46:20;10.70;99.90
4727;DHT22;2377;51.734;8.950;2022-09-12T04:48:48;10.80;99.90
4727;DHT22;2377;51.734;8.950;2022-09-12T04:51:18;10.70;99.90
4727;DHT22;2377;51.734;8.950;2022-09-12T04:53:48;10.70;99.90
4727;DHT22;2377;51.734;8.950;2022-09-12T04:56:17;10.70;99.90
4727;DHT22;2377;51.734;8.950;2022-09-12T04:58:45;10.60;99.90
4727;DHT22;2377;51.734;8.950;2022-09-12T05:01:16;10.60;99.90
4727;DHT22;2377;51.734;8.950;2022-09-12T05:03:45;10.60;99.90
4727;DHT22;2377;51.734;8.950;2022-09-12T05:06:15;10.70;99.90
4727;DHT22;2377;51.734;8.950;2022-09-12T05:08:44;10.70;99.90
4727;DHT22;2377;51.734;8.950;2022-09-12T05:11:13;10.70;99.90
4727;DHT22;2377;51.734;8.950;2022-09-12T05:13:42;10.70;99.90
4727;DHT22;2377;51.734;8.950;2022-09-12T05:16:11;10.70;99.90
4727;DHT22;2377;51.734;8.950;2022-09-12T05:18:42;10.60;99.90
4727;DHT22;2377;51.734;8.950;2022-09-12T05:21:15;10.70;99.90
4727;DHT22;2377;51.734;8.950;2022-09-12T05:23:45;10.70;99.90
4727;DHT22;2377;51.734;8.950;2022-09-12T05:26:14;10.70;99.90
4727;DHT22;2377;51.734;8.950;2022-09-12T05:28:43;10.70;99.90
4727;DHT22;2377;51.734;8.950;2022-09-12T05:31:12;10.80;99.90
4727;DHT22;2377;51.734;8.950;2022-09-12T05:33:43;10.80;99.90
4727;DHT22;2377;51.734;8.950;2022-09-12T05:36:13;10.80;99.90
4727;DHT22;2377;51.734;8.950;2022-09-12T05:38:42;10.80;99.90
4727;DHT22;2377;51.734;8.950;2022-09-12T05:41:10;10.90;99.90
4727;DHT22;2377;51.734;8.950;2022-09-12T05:43:40;10.90;99.90
4727;DHT22;2377;51.734;8.950;2022-09-12T05:46:10;10.90;99.90
4727;DHT22;2377;51.734;8.950;2022-09-12T05:48:42;11.00;99.90
4727;DHT22;2377;51.734;8.950;2022-09-12T05:51:12;11.00;99.90
4727;DHT22;2377;51.734;8.950;2022-09-12T05:53:44;11.10;99.90
4727;DHT22;2377;51.734;8.950;2022-09-12T05:56:14;11.10;99.90
4727;DHT22;2377;51.734;8.950;2022-09-12T05:58:47;11.30;99.90
4727;DHT22;2377;51.734;8.950;2022-09-12T06:01:18;11.30;99.90
4727;DHT22;2377;51.734;8.950;2022-09-12T06:03:49;11.30;99.90
4727;DHT22;2377;51.734;8.950;2022-09-12T06:06:19;11.30;99.90
4727;DHT22;2377;51.734;8.950;2022-09-12T06:08:49;11.40;99.90
4727;DHT22;2377;51.734;8.950;2022-09-12T06:11:19;11.50;99.90
4727;DHT22;2377;51.734;8.950;2022-09-12T06:13:48;11.60;99.90
4727;DHT22;2377;51.734;8.950;2022-09-12T06:16:17;11.70;99.90
4727;DHT22;2377;51.734;8.950;2022-09-12T06:18:48;11.80;99.90
4727;DHT22;2377;51.734;8.950;2022-09-12T06:21:18;11.80;99.90
4727;DHT22;2377;51.734;8.950;2022-09-12T06:23:47;12.10;99.90
4727;DHT22;2377;51.734;8.950;2022-09-12T06:26:15;12.10;99.90
4727;DHT22;2377;51.734;8.950;2022-09-12T06:28:46;12.20;99.90
4727;DHT22;2377;51.734;8.950;2022-09-12T06:31:15;12.30;99.90
4727;DHT22;2377;51.734;8.950;2022-09-12T06:33:47;12.40;99.90
4727;DHT22;2377;51.734;8.950;2022-09-12T06:36:19;12.50;99.90
4727;DHT22;2377;51.734;8.950;2022-09-12T06:38:52;12.60;99.90
4727;DHT22;2377;51.734;8.950;2022-09-12T06:41:20;12.60;99.90
4727;DHT22;2377;51.734;8.950;2022-09-12T06:43:48;12.80;99.90
4727;DHT22;2377;51.734;8.950;2022-09-12T06:46:16;13.00;99.90
4727;DHT22;2377;51.734;8.950;2022-09-12T06:48:43;13.00;99.90
4727;DHT22;2377;51.734;8.950;2022-09-12T06:51:13;13.10;99.90
4727;DHT22;2377;51.734;8.950;2022-09-12T06:53:42;13.20;99.90
4727;DHT22;2377;51.734;8.950;2022-09-12T06:56:12;13.30;99.90
4727;DHT22;2377;51.734;8.950;2022-09-12T06:58:41;13.40;99.90
4727;DHT22;2377;51.734;8.950;2022-09-12T07:01:10;13.50;99.90
4727;DHT22;2377;51.734;8.950;2022-09-12T07:03:40;13.50;99.90
4727;DHT22;2377;51.734;8.950;2022-09-12T07:06:10;13.60;99.90
4727;DHT22;2377;51.734;8.950;2022-09-12T07:08:40;13.70;99.90
4727;DHT22;2377;51.734;8.950;2022-09-12T07:11:09;13.90;99.90
4727;DHT22;2377;51.734;8.950;2022-09-12T07:13:37;14.00;99.90
4727;DHT22;2377;51.734;8.950;2022-09-12T07:16:06;14.10;99.90
4727;DHT22;2377;51.734;8.950;2022-09-12T07:18:34;14.10;99.90
4727;DHT22;2377;51.734;8.950;2022-09-12T07:21:05;14.30;99.90
4727;DHT22;2377;51.734;8.950;2022-09-12T07:23:37;14.30;99.90
4727;DHT22;2377;51.734;8.950;2022-09-12T07:26:05;14.40;99.90
4727;DHT22;2377;51.734;8.950;2022-09-12T07:28:33;14.60;99.90
4727;DHT22;2377;51.734;8.950;2022-09-12T07:31:05;14.70;99.90
4727;DHT22;2377;51.734;8.950;2022-09-12T07:33:34;14.80;99.90
4727;DHT22;2377;51.734;8.950;2022-09-12T07:36:02;15.00;99.90
4727;DHT22;2377;51.734;8.950;2022-09-12T07:38:30;15.10;99.90
4727;DHT22;2377;51.734;8.950;2022-09-12T07:40:59;15.30;99.90
4727;DHT22;2377;51.734;8.950;2022-09-12T07:43:27;15.40;99.90
4727;DHT22;2377;51.734;8.950;2022-09-12T07:45:54;15.50;99.90
4727;DHT22;2377;51.734;8.950;2022-09-12T07:48:22;15.70;99.90
4727;DHT22;2377;51.734;8.950;2022-09-12T07:50:56;15.80;99.90
4727;DHT22;2377;51.734;8.950;2022-09-12T07:53:24;16.00;99.90
4727;DHT22;2377;51.734;8.950;2022-09-12T07:55:54;16.10;99.90
4727;DHT22;2377;51.734;8.950;2022-09-12T07:58:23;16.20;99.90
4727;DHT22;2377;51.734;8.950;2022-09-12T08:00:51;16.30;99.90
4727;DHT22;2377;51.734;8.950;2022-09-12T08:03:18;16.40;99.90
4727;DHT22;2377;51.734;8.950;2022-09-12T08:05:45;16.50;99.90
4727;DHT22;2377;51.734;8.950;2022-09-12T08:08:12;16.60;99.90
4727;DHT22;2377;51.734;8.950;2022-09-12T08:10:39;16.70;99.90
4727;DHT22;2377;51.734;8.950;2022-09-12T08:13:06;16.80;99.90
4727;DHT22;2377;51.734;8.950;2022-09-12T08:15:35;17.00;84.70
4727;DHT22;2377;51.734;8.950;2022-09-12T08:18:02;17.10;61.70
4727;DHT22;2377;51.734;8.950;2022-09-12T08:20:29;17.10;47.80
4727;DHT22;2377;51.734;8.950;2022-09-12T08:22:57;17.20;58.30
4727;DHT22;2377;51.734;8.950;2022-09-12T08:25:24;17.30;46.40
4727;DHT22;2377;51.734;8.950;2022-09-12T08:27:51;17.50;31.20
4727;DHT22;2377;51.734;8.950;2022-09-12T08:30:18;17.60;31.20
4727;DHT22;2377;51.734;8.950;2022-09-12T08:32:47;17.70;16.00
4727;DHT22;2377;51.734;8.950;2022-09-12T08:35:14;17.80;8.90
4727;DHT22;2377;51.734;8.950;2022-09-12T08:37:41;18.00;6.40
4727;DHT22;2377;51.734;8.950;2022-09-12T08:40:14;18.10;1.00
4727;DHT22;2377;51.734;8.950;2022-09-12T08:42:51;18.30;1.00
4727;DHT22;2377;51.734;8.950;2022-09-12T08:45:31;18.40;1.00
4727;DHT22;2377;51.734;8.950;2022-09-12T08:48:06;18.40;1.00
4727;DHT22;2377;51.734;8.950;2022-09-12T08:50:36;18.40;1.00
4727;DHT22;2377;51.734;8.950;2022-09-12T08:53:12;18.50;1.00
4727;DHT22;2377;51.734;8.950;2022-09-12T08:55:44;18.50;1.00
4727;DHT22;2377;51.734;8.950;2022-09-12T08:58:14;18.50;1.00
4727;DHT22;2377;51.734;8.950;2022-09-12T09:00:49;18.50;1.00
4727;DHT22;2377;51.734;8.950;2022-09-12T09:03:53;18.60;1.00
4727;DHT22;2377;51.734;8.950;2022-09-12T09:09:36;18.70;1.00
4727;DHT22;2377;51.734;8.950;2022-09-12T09:12:19;18.80;1.00
4727;DHT22;2377;51.734;8.950;2022-09-12T09:15:13;19.00;1.00
4727;DHT22;2377;51.734;8.950;2022-09-12T09:17:52;19.10;1.00
4727;DHT22;2377;51.734;8.950;2022-09-12T09:20:30;19.30;1.00
4727;DHT22;2377;51.734;8.950;2022-09-12T09:23:06;19.50;1.00
4727;DHT22;2377;51.734;8.950;2022-09-12T09:25:43;19.60;1.00
4727;DHT22;2377;51.734;8.950;2022-09-12T09:28:21;19.60;1.00
4727;DHT22;2377;51.734;8.950;2022-09-12T09:30:51;19.60;1.00
4727;DHT22;2377;51.734;8.950;2022-09-12T09:33:22;19.70;1.00
4727;DHT22;2377;51.734;8.950;2022-09-12T09:36:01;19.80;1.00
4727;DHT22;2377;51.734;8.950;2022-09-12T09:38:47;20.00;1.00
4727;DHT22;2377;51.734;8.950;2022-09-12T09:41:34;20.00;1.00
4727;DHT22;2377;51.734;8.950;2022-09-12T09:44:12;20.00;1.00
4727;DHT22;2377;51.734;8.950;2022-09-12T09:46:39;20.00;1.00
4727;DHT22;2377;51.734;8.950;2022-09-12T09:49:08;20.10;1.00
4727;DHT22;2377;51.734;8.950;2022-09-12T09:51:41;20.30;1.00
4727;DHT22;2377;51.734;8.950;2022-09-12T09:54:16;20.30;1.00
4727;DHT22;2377;51.734;8.950;2022-09-12T09:56:47;20.50;1.00
4727;DHT22;2377;51.734;8.950;2022-09-12T09:59:16;20.60;1.00
4727;DHT22;2377;51.734;8.950;2022-09-12T10:01:46;20.80;1.00
4727;DHT22;2377;51.734;8.950;2022-09-12T10:04:18;21.00;1.00
4727;DHT22;2377;51.734;8.950;2022-09-12T10:06:50;21.10;1.00
4727;DHT22;2377;51.734;8.950;2022-09-12T10:09:22;21.20;1.00
4727;DHT22;2377;51.734;8.950;2022-09-12T10:11:52;21.30;1.00
4727;DHT22;2377;51.734;8.950;2022-09-12T10:14:31;21.30;1.00
4727;DHT22;2377;51.734;8.950;2022-09-12T10:17:08;21.30;1.00
4727;DHT22;2377;51.734;8.950;2022-09-12T10:19:49;21.30;1.00
4727;DHT22;2377;51.734;8.950;2022-09-12T10:22:21;21.30;1.00
4727;DHT22;2377;51.734;8.950;2022-09-12T10:24:52;21.30;1.00
4727;DHT22;2377;51.734;8.950;2022-09-12T10:27:24;21.30;1.00
4727;DHT22;2377;51.734;8.950;2022-09-12T10:29:58;21.40;1.00
4727;DHT22;2377;51.734;8.950;2022-09-12T10:32:30;21.50;1.00
4727;DHT22;2377;51.734;8.950;2022-09-12T10:35:05;21.60;1.00
4727;DHT22;2377;51.734;8.950;2022-09-12T10:37:52;21.60;1.00
4727;DHT22;2377;51.734;8.950;2022-09-12T10:40:23;21.70;1.00
4727;DHT22;2377;51.734;8.950;2022-09-12T10:42:54;21.70;1.00
4727;DHT22;2377;51.734;8.950;2022-09-12T10:45:26;21.70;1.00
4727;DHT22;2377;51.734;8.950;2022-09-12T10:47:57;21.70;1.00
4727;DHT22;2377;51.734;8.950;2022-09-12T10:50:29;21.60;1.00
4727;DHT22;2377;51.734;8.950;2022-09-12T10:56:06;21.60;1.00
4727;DHT22;2377;51.734;8.950;2022-09-12T11:01:40;22.00;1.00
4727;DHT22;2377;51.734;8.950;2022-09-12T11:04:40;22.10;1.00
4727;DHT22;2377;51.734;8.950;2022-09-12T11:07:31;22.30;1.00
4727;DHT22;2377;51.734;8.950;2022-09-12T11:10:23;22.30;1.00
4727;DHT22;2377;51.734;8.950;2022-09-12T11:13:05;22.40;1.00
4727;DHT22;2377;51.734;8.950;2022-09-12T11:15:59;22.50;1.00
4727;DHT22;2377;51.734;8.950;2022-09-12T11:18:55;22.50;1.00
4727;DHT22;2377;51.734;8.950;2022-09-12T11:21:55;22.50;1.00
4727;DHT22;2377;51.734;8.950;2022-09-12T11:24:53;22.50;1.00
4727;DHT22;2377;51.734;8.950;2022-09-12T11:27:50;22.50;1.00
4727;DHT22;2377;51.734;8.950;2022-09-12T11:30:42;22.50;1.00
4727;DHT22;2377;51.734;8.950;2022-09-12T11:33:35;22.60;1.00
4727;DHT22;2377;51.734;8.950;2022-09-12T11:36:16;22.70;1.00
4727;DHT22;2377;51.734;8.950;2022-09-12T11:39:01;22.70;1.00
4727;DHT22;2377;51.734;8.950;2022-09-12T11:41:37;22.60;1.00
4727;DHT22;2377;51.734;8.950;2022-09-12T11:44:14;22.50;1.00
4727;DHT22;2377;51.734;8.950;2022-09-12T11:46:46;22.50;1.00
4727;DHT22;2377;51.734;8.950;2022-09-12T11:49:24;22.50;1.00
4727;DHT22;2377;51.734;8.950;2022-09-12T11:51:57;22.50;1.00
4727;DHT22;2377;51.734;8.950;2022-09-12T11:54:32;22.50;1.00
4727;DHT22;2377;51.734;8.950;2022-09-12T11:57:10;22.50;1.00
4727;DHT22;2377;51.734;8.950;2022-09-12T11:59:45;22.60;1.00
4727;DHT22;2377;51.734;8.950;2022-09-12T12:02:21;22.60;1.00
4727;DHT22;2377;51.734;8.950;2022-09-12T12:05:16;22.60;1.00
4727;DHT22;2377;51.734;8.950;2022-09-12T12:07:51;22.60;1.00
4727;DHT22;2377;51.734;8.950;2022-09-12T12:10:26;22.60;99.90
4727;DHT22;2377;51.734;8.950;2022-09-12T12:12:59;22.60;99.90
4727;DHT22;2377;51.734;8.950;2022-09-12T12:15:29;22.60;99.90
4727;DHT22;2377;51.734;8.950;2022-09-12T12:18:07;22.60;99.90
4727;DHT22;2377;51.734;8.950;2022-09-12T12:20:41;22.60;99.90
4727;DHT22;2377;51.734;8.950;2022-09-12T12:23:22;22.60;99.90
4727;DHT22;2377;51.734;8.950;2022-09-12T12:25:53;22.60;99.90
4727;DHT22;2377;51.734;8.950;2022-09-12T12:28:55;22.60;99.90
4727;DHT22;2377;51.734;8.950;2022-09-12T12:31:24;22.50;99.90
4727;DHT22;2377;51.734;8.950;2022-09-12T12:34:18;22.60;99.90
4727;DHT22;2377;51.734;8.950;2022-09-12T12:36:48;22.60;99.90
4727;DHT22;2377;51.734;8.950;2022-09-12T12:45:47;22.80;99.90
4727;DHT22;2377;51.734;8.950;2022-09-12T12:51:47;22.80;99.90
4727;DHT22;2377;51.734;8.950;2022-09-12T12:54:50;22.80;99.90
4727;DHT22;2377;51.734;8.950;2022-09-12T12:57:35;22.70;99.90
4727;DHT22;2377;51.734;8.950;2022-09-12T13:00:30;22.70;99.90
4727;DHT22;2377;51.734;8.950;2022-09-12T13:03:10;22.60;99.90
4727;DHT22;2377;51.734;8.950;2022-09-12T13:05:57;22.80;99.90
4727;DHT22;2377;51.734;8.950;2022-09-12T13:08:29;22.80;99.90
4727;DHT22;2377;51.734;8.950;2022-09-12T13:11:00;22.90;99.90
4727;DHT22;2377;51.734;8.950;2022-09-12T13:13:46;23.00;99.90
4727;DHT22;2377;51.734;8.950;2022-09-12T13:16:29;23.10;99.90
4727;DHT22;2377;51.734;8.950;2022-09-12T13:19:02;23.10;99.90
4727;DHT22;2377;51.734;8.950;2022-09-12T13:21:33;23.10;99.90
4727;DHT22;2377;51.734;8.950;2022-09-12T13:24:02;23.10;99.90
4727;DHT22;2377;51.734;8.950;2022-09-12T13:26:40;23.10;99.90
4727;DHT22;2377;51.734;8.950;2022-09-12T13:29:13;23.20;99.90
4727;DHT22;2377;51.734;8.950;2022-09-12T13:31:42;23.30;99.90
4727;DHT22;2377;51.734;8.950;2022-09-12T13:34:16;23.30;99.90
4727;DHT22;2377;51.734;8.950;2022-09-12T13:37:11;23.30;99.90
4727;DHT22;2377;51.734;8.950;2022-09-12T13:39:55;23.30;99.90
4727;DHT22;2377;51.734;8.950;2022-09-12T13:42:39;23.30;99.90
4727;DHT22;2377;51.734;8.950;2022-09-12T13:45:13;23.20;99.90
4727;DHT22;2377;51.734;8.950;2022-09-12T13:47:46;23.20;99.90
4727;DHT22;2377;51.734;8.950;2022-09-12T13:50:18;23.30;99.90
4727;DHT22;2377;51.734;8.950;2022-09-12T13:52:52;23.30;99.90
4727;DHT22;2377;51.734;8.950;2022-09-12T13:55:29;23.40;99.90
4727;DHT22;2377;51.734;8.950;2022-09-12T13:58:00;23.50;99.90
4727;DHT22;2377;51.734;8.950;2022-09-12T14:00:29;23.50;99.90
4727;DHT22;2377;51.734;8.950;2022-09-12T14:02:59;23.40;99.90
4727;DHT22;2377;51.734;8.950;2022-09-12T14:05:53;23.50;99.90
4727;DHT22;2377;51.734;8.950;2022-09-12T14:08:24;23.50;99.90
4727;DHT22;2377;51.734;8.950;2022-09-12T14:10:51;23.50;99.90
4727;DHT22;2377;51.734;8.950;2022-09-12T14:13:21;23.50;99.90
4727;DHT22;2377;51.734;8.950;2022-09-12T14:15:52;23.50;99.90
4727;DHT22;2377;51.734;8.950;2022-09-12T14:18:23;23.50;99.90
4727;DHT22;2377;51.734;8.950;2022-09-12T14:20:52;23.60;99.90
4727;DHT22;2377;51.734;8.950;2022-09-12T14:23:27;23.50;99.90
4727;DHT22;2377;51.734;8.950;2022-09-12T14:25:56;23.60;99.90
4727;DHT22;2377;51.734;8.950;2022-09-12T14:28:26;23.60;99.90
4727;DHT22;2377;51.734;8.950;2022-09-12T14:30:59;23.60;99.90
4727;DHT22;2377;51.734;8.950;2022-09-12T14:33:32;23.70;99.90
4727;DHT22;2377;51.734;8.950;2022-09-12T14:36:09;23.60;99.90
4727;DHT22;2377;51.734;8.950;2022-09-12T14:38:45;23.60;99.90
4727;DHT22;2377;51.734;8.950;2022-09-12T14:41:22;23.50;99.90
4727;DHT22;2377;51.734;8.950;2022-09-12T14:43:54;23.50;99.90
4727;DHT22;2377;51.734;8.950;2022-09-12T14:46:27;23.50;99.90
4727;DHT22;2377;51.734;8.950;2022-09-12T14:49:01;23.50;99.90
4727;DHT22;2377;51.734;8.950;2022-09-12T14:51:36;23.50;99.90
4727;DHT22;2377;51.734;8.950;2022-09-12T14:54:33;23.40;99.90
4727;DHT22;2377;51.734;8.950;2022-09-12T14:57:04;23.30;99.90
4727;DHT22;2377;51.734;8.950;2022-09-12T14:59:37;23.40;99.90
4727;DHT22;2377;51.734;8.950;2022-09-12T15:02:25;23.30;99.90
4727;DHT22;2377;51.734;8.950;2022-09-12T15:04:54;23.30;99.90
4727;DHT22;2377;51.734;8.950;2022-09-12T15:07:49;23.30;99.90
4727;DHT22;2377;51.734;8.950;2022-09-12T15:10:24;23.30;99.90
4727;DHT22;2377;51.734;8.950;2022-09-12T15:13:13;23.30;99.90
4727;DHT22;2377;51.734;8.950;2022-09-12T15:15:45;23.30;99.90
4727;DHT22;2377;51.734;8.950;2022-09-12T15:18:15;23.30;99.90
4727;DHT22;2377;51.734;8.950;2022-09-12T15:20:45;23.20;99.90
4727;DHT22;2377;51.734;8.950;2022-09-12T15:23:18;23.20;99.90
4727;DHT22;2377;51.734;8.950;2022-09-12T15:25:54;23.30;99.90
4727;DHT22;2377;51.734;8.950;2022-09-12T15:28:22;23.40;99.90
4727;DHT22;2377;51.734;8.950;2022-09-12T15:30:52;23.40;99.90
4727;DHT22;2377;51.734;8.950;2022-09-12T15:33:23;23.40;99.90
4727;DHT22;2377;51.734;8.950;2022-09-12T15:35:51;23.30;99.90
4727;DHT22;2377;51.734;8.950;2022-09-12T15:38:19;23.30;99.90
4727;DHT22;2377;51.734;8.950;2022-09-12T15:40:49;23.30;99.90
4727;DHT22;2377;51.734;8.950;2022-09-12T15:43:19;23.30;99.90
4727;DHT22;2377;51.734;8.950;2022-09-12T15:45:48;23.30;99.90
4727;DHT22;2377;51.734;8.950;2022-09-12T15:48:16;23.30;99.90
4727;DHT22;2377;51.734;8.950;2022-09-12T15:50:45;23.30;99.90
4727;DHT22;2377;51.734;8.950;2022-09-12T15:53:14;23.30;99.90
4727;DHT22;2377;51.734;8.950;2022-09-12T15:55:42;23.20;99.90
4727;DHT22;2377;51.734;8.950;2022-09-12T15:58:10;23.10;99.90
4727;DHT22;2377;51.734;8.950;2022-09-12T16:00:39;23.10;99.90
4727;DHT22;2377;51.734;8.950;2022-09-12T16:03:19;23.00;99.90
4727;DHT22;2377;51.734;8.950;2022-09-12T16:05:48;23.00;99.90
4727;DHT22;2377;51.734;8.950;2022-09-12T16:08:16;22.90;99.90
4727;DHT22;2377;51.734;8.950;2022-09-12T16:10:44;22.80;99.90
4727;DHT22;2377;51.734;8.950;2022-09-12T16:13:13;22.80;99.90
4727;DHT22;2377;51.734;8.950;2022-09-12T16:15:41;22.70;99.90
4727;DHT22;2377;51.734;8.950;2022-09-12T16:18:08;22.60;99.90
4727;DHT22;2377;51.734;8.950;2022-09-12T16:20:37;22.60;99.90
4727;DHT22;2377;51.734;8.950;2022-09-12T16:23:04;22.60;99.90
4727;DHT22;2377;51.734;8.950;2022-09-12T16:25:32;22.50;99.90
4727;DHT22;2377;51.734;8.950;2022-09-12T16:27:59;22.50;99.90
4727;DHT22;2377;51.734;8.950;2022-09-12T16:30:28;22.40;99.90
4727;DHT22;2377;51.734;8.950;2022-09-12T16:32:56;22.40;99.90
4727;DHT22;2377;51.734;8.950;2022-09-12T16:35:23;22.40;99.90
4727;DHT22;2377;51.734;8.950;2022-09-12T16:37:51;22.30;99.90
4727;DHT22;2377;51.734;8.950;2022-09-12T16:40:19;22.30;99.90
4727;DHT22;2377;51.734;8.950;2022-09-12T16:42:46;22.30;99.90
4727;DHT22;2377;51.734;8.950;2022-09-12T16:45:13;22.30;99.90
4727;DHT22;2377;51.734;8.950;2022-09-12T16:47:40;22.20;99.90
4727;DHT22;2377;51.734;8.950;2022-09-12T16:50:09;22.20;1.00
4727;DHT22;2377;51.734;8.950;2022-09-12T16:52:36;22.10;1.00
4727;DHT22;2377;51.734;8.950;2022-09-12T16:55:04;22.10;1.00
4727;DHT22;2377;51.734;8.950;2022-09-12T16:57:32;22.00;1.00
4727;DHT22;2377;51.734;8.950;2022-09-12T16:59:59;22.00;1.00
4727;DHT22;2377;51.734;8.950;2022-09-12T17:02:26;21.90;1.00
4727;DHT22;2377;51.734;8.950;2022-09-12T17:04:53;21.80;1.00
4727;DHT22;2377;51.734;8.950;2022-09-12T17:07:22;21.70;1.00
4727;DHT22;2377;51.734;8.950;2022-09-12T17:09:49;21.60;1.00